Brisbane, Queensland, Australia, Latitude 27°S 23' 52", Longitude 152° E 55' 35", Elevation 76 m

Tue 26 Oct 2021 6:50:04 pm: Temperature: 22.2 °C, Humidity: 80 %, Wind speed: 7 km/h, Wind Gust: 15 km/h, Rain today: 0.0 mm, MSLP: 1016.5 hPa

Website under continual development from 11 years of weather data. Please contact us if you find issues or like to provide feedback.

Recent Observations

This page presents the weather data from the last 72 hours at 30 minute intervals.

Last updated at 6:50:04 pm AEST on Tue 26 October 2021.

Last 24 hours
Date/Time(AEST) Temp. ( °C) Dew Point ( °C) Relative Humidity (%) Apparent Temp. ( °C) Wind Direction Wind Speed (kph) Wind Gust (kph) Wind Speed (kts) Wind Gust (kts) MSL Pressure (hPa) Rain since midnight (mm)
26/10 6:50 pm 22.2 18.6 80 23.9 E 7 15 4 8 1016.5 0.0
26/10 6:20 pm 22.3 18.4 78 23.1 E 3 12 2 6 1016.1 0.0
26/10 5:50 pm 22.7 18.2 76 20.7 E 7 14 4 8 1015.8 0.0
26/10 5:20 pm 22.8 18.0 74 20.7 E 7 17 4 9 1015.7 0.0
26/10 4:50 pm 23.3 18.2 73 22.7 ENE 5 15 3 8 1015.3 0.0
26/10 4:20 pm 23.8 18.2 70 19.6 ENE 10 19 5 10 1014.9 0.0
26/10 3:50 pm 24.2 18.6 71 21.7 ENE 8 14 4 8 1014.6 0.0
26/10 3:20 pm 24.4 18.9 72 21.3 E 9 17 5 9 1014.7 0.0
26/10 2:50 pm 25.3 19.2 69 23 ENE 8 14 4 8 1014.6 0.0
26/10 2:20 pm 25.2 18.6 67 24.1 NE 6 15 3 8 1014.8 0.0
26/10 1:50 pm 26.4 19.1 64 24 ENE 8 15 4 8 1015.2 0.0
26/10 1:20 pm 25.7 18.8 66 25.4 E 5 14 3 8 1015.4 0.0
26/10 12:50 pm 25.4 19.3 69 24.6 E 6 15 3 8 1015.6 0.0
26/10 12:20 pm 25.8 19.1 66 24.8 E 6 15 3 8 1016.0 0.0
26/10 11:50 am 26.4 18.8 63 27.4 E 3 8 2 4 1016.2 0.0
26/10 11:20 am 26.9 18.8 61 27.9 S 3 8 2 4 1016.7 0.0
26/10 10:50 am 25.8 19.1 66 27.6 ENE 2 8 1 4 1017.2 0.0
26/10 10:20 am 24.9 19.0 70 26.8 ENE 2 6 1 3 1017.6 0.0
26/10 9:50 am 24.2 18.8 72 26.7 NW 1 4 1 2 1017.6 0.0
26/10 9:20 am 24.4 19.1 72 26.9 N 1 4 1 2 1017.9 0.0
26/10 8:50 am 24.3 18.8 72 26.1 NNW 2 6 1 3 1017.8 0.0
26/10 8:20 am 23.7 19.1 75 26.2 NW 1 6 1 3 1017.6 0.0
26/10 7:50 am 22.7 19.4 81 24 N 3 6 2 3 1017.4 0.0
26/10 7:20 am 21.8 19.4 87 24.6 N 1 4 1 2 1017.2 0.0
26/10 6:50 am 20.4 19.1 92 23.7 CALM 0 0 0 0 1016.6 0.0
26/10 6:20 am 19.6 18.7 95 22.7 CALM 0 0 0 0 1016.3 0.0
26/10 5:50 am 19.2 18.3 95 22.2 CALM 0 0 0 0 1016.2 0.0
26/10 5:20 am 19.2 18.2 94 22.1 CALM 0 0 0 0 1015.8 0.0
26/10 4:50 am 19.3 18.3 94 22.2 CALM 0 0 0 0 1015.6 0.0
26/10 4:20 am 19.3 18.3 94 20.8 SSW 2 6 1 3 1015.2 0.0
26/10 3:50 am 19.3 18.2 93 22.2 CALM 0 0 0 0 1014.7 0.0
26/10 3:20 am 19.3 18.2 93 22.2 CALM 0 0 0 0 1014.7 0.0
26/10 2:50 am 19.3 18.2 93 22.2 CALM 0 2 0 1 1014.5 0.0
26/10 2:20 am 19.2 18.0 92 20.5 SSW 2 6 1 3 1014.4 0.0
26/10 1:50 am 19.2 18.1 93 22 CALM 0 4 0 2 1014.6 0.0
26/10 1:20 am 19.3 18.3 94 22.2 S 0 2 0 1 1015.0 0.0
26/10 12:50 am 19.5 18.4 94 22.5 CALM 0 0 0 0 1015.3 0.0
26/10 12:20 am 19.6 18.4 93 22.6 CALM 0 0 0 0 1015.5 0.0
25/10 11:50 pm 19.7 18.4 92 22.7 NW 0 4 0 2 1015.9 2.4
25/10 11:20 pm 19.7 18.2 91 22.6 N 0 2 0 1 1016.3 2.4
25/10 10:50 pm 19.7 18.2 91 21.9 SSE 1 8 1 4 1015.9 2.4
25/10 10:20 pm 19.8 18.2 90 22.6 CALM 0 6 0 3 1016.2 2.4
25/10 9:50 pm 19.8 18.0 89 20.5 NW 3 8 2 4 1015.8 2.4
25/10 9:20 pm 19.9 18.4 91 21.5 WNW 2 6 1 3 1015.8 2.4
25/10 8:50 pm 20.0 18.5 91 19.5 NW 5 6 3 3 1016.1 2.4
25/10 8:20 pm 20.2 18.9 92 22 WNW 2 8 1 4 1015.9 2.4
25/10 7:50 pm 20.2 19.0 93 19.2 NW 6 8 3 4 1015.6 2.4
25/10 7:20 pm 20.2 19.1 93 18.5 NW 7 10 4 5 1015.2 2.4
24 to 48 hours ago
Date/Time(AEST) Temp. °C Dew Point °C Relative Humidity % Appararent Temp. °C Wind Direction Wind Speed (kph) Wind Gust (kph) Wind Speed (kts) Wind Gust (kts) MSL Pressure (hPa) Rain since midnight (mm)
25/10 6:50 pm 20.3 18.9 92 16.5 N 10 15 5 8 1014.4 2.4
25/10 6:20 pm 20.7 19.3 92 18.5 NW 8 12 4 6 1015.7 2.2
25/10 5:50 pm 21.3 19.4 89 17.7 NNW 10 17 5 9 1015.7 2.0
25/10 5:20 pm 22.9 19.9 83 16 NNW 15 23 8 12 1015.0 0.2
25/10 4:50 pm 23.9 19.7 77 22.5 NNW 7 14 4 8 1014.0 0.0
25/10 4:20 pm 24.9 19.8 73 20.8 N 11 17 6 9 1013.6 0.0
25/10 3:50 pm 25.0 19.4 71 23.5 N 7 15 4 8 1013.5 0.0
25/10 3:20 pm 24.9 19.6 72 22.8 N 8 15 4 8 1013.3 0.0
25/10 2:50 pm 25.1 19.3 70 22.1 NNE 9 17 5 9 1012.9 0.0
25/10 2:20 pm 25.6 19.6 70 25.7 NNE 5 15 3 8 1013.2 0.0
25/10 1:50 pm 24.6 19.4 73 18.9 NNE 13 29 7 16 1013.7 0.0
25/10 1:20 pm 24.8 19.6 73 25.5 NE 4 10 2 5 1015.4 0.0
25/10 12:50 pm 24.7 20.1 76 26.4 NNE 3 6 2 3 1015.7 0.0
25/10 12:20 pm 25.9 19.8 69 28.1 NNE 2 6 1 3 1016.1 0.0
25/10 11:50 am 26.3 19.4 66 28.3 E 2 8 1 4 1016.0 0.0
25/10 11:20 am 27.2 19.1 61 27.6 ESE 4 10 2 5 1016.2 0.0
25/10 10:50 am 26.8 19.7 65 26.8 NNE 5 12 3 6 1016.1 0.0
25/10 10:20 am 27.0 20.1 66 27.2 NE 5 10 3 5 1016.2 0.0
25/10 9:50 am 27.3 20.3 66 28.4 NE 4 8 2 4 1016.0 0.0
25/10 9:20 am 26.1 19.7 68 26.9 ENE 4 8 2 4 1016.3 0.0
25/10 8:50 am 25.2 20.1 73 26.8 N 3 8 2 4 1016.3 0.0
25/10 8:20 am 24.6 19.6 74 27.4 E 1 8 1 4 1016.3 0.0
25/10 7:50 am 24.0 19.9 78 24.9 NE 4 8 2 4 1015.9 0.0
25/10 7:20 am 23.1 19.6 81 25.2 ENE 2 6 1 3 1016.3 0.0
25/10 6:50 am 22.4 19.7 84 24.5 NE 2 8 1 4 1016.0 0.0
25/10 6:20 am 21.2 19.7 91 24.7 NW 0 2 0 1 1015.2 0.0
25/10 5:50 am 20.3 19.2 93 23.6 CALM 0 0 0 0 1015.5 0.0
25/10 5:20 am 20.0 18.7 92 23.1 CALM 0 0 0 0 1015.1 0.0
25/10 4:50 am 20.2 18.7 91 23.3 WNW 0 4 0 2 1014.7 0.0
25/10 4:20 am 20.6 18.8 90 23.8 CALM 0 0 0 0 1014.6 0.0
25/10 3:50 am 21.0 19.1 89 23.6 ESE 3 6 2 3 1014.2 0.0
25/10 3:20 am 21.3 19.2 88 22.5 E 3 6 2 3 1014.2 0.0
25/10 2:50 am 21.4 19.3 88 23.4 ENE 2 6 1 3 1014.3 0.0
25/10 2:20 am 21.2 19.1 88 24.5 CALM 0 0 0 0 1014.3 0.0
25/10 1:50 am 21.1 18.9 88 24.3 ESE 0 4 0 2 1014.2 0.0
25/10 1:20 am 21.4 19.0 86 23.9 E 1 4 1 2 1014.5 0.0
25/10 12:50 am 21.8 19.2 85 21.6 ESE 5 14 3 8 1014.6 0.0
25/10 12:20 am 21.9 19.4 86 24.6 ESE 1 6 1 3 1015.0 0.0
24/10 11:50 pm 22.0 19.4 85 23.3 ESE 3 8 2 4 1015.1 0.0
24/10 11:20 pm 22.1 19.4 85 24.8 E 1 8 1 4 1015.1 0.0
24/10 10:50 pm 22.3 19.7 85 25.1 E 1 2 1 1 1015.3 0.0
24/10 10:20 pm 22.3 19.6 85 23.7 ESE 3 12 2 6 1015.1 0.0
24/10 9:50 pm 22.7 19.8 84 25.6 ESE 1 4 1 2 1015.0 0.0
24/10 9:20 pm 23.2 19.8 81 25.4 SE 2 8 1 4 1014.8 0.0
24/10 8:50 pm 24.0 19.2 75 25.3 E 3 8 2 4 1014.4 0.0
24/10 8:20 pm 23.5 15.8 62 25.4 E 0 8 0 4 1013.8 0.0
24/10 7:50 pm 24.1 15.3 58 25.8 CALM 0 0 0 0 1013.1 0.0
24/10 7:20 pm 25.5 14.7 51 27 CALM 0 0 0 0 1012.4 0.0
48 to 72 hours ago
Date/Time(AEST) Temp. °C Dew Point °C Relative Humidity % Appararent Temp. °C Wind Direction Wind Speed (kph) Wind Gust (kph) Wind Speed (kts) Wind Gust (kts) MSL Pressure (hPa) Rain since midnight (mm)
24/10 6:50 pm 27.2 14.3 45 28.5 CALM 0 0 0 0 1012.3 0.0
24/10 6:20 pm 29.2 13.8 39 30.4 CALM 0 0 0 0 1012.0 0.0
24/10 5:50 pm 30.8 12.3 32 29.4 WSW 3 12 2 6 1011.9 0.0
24/10 5:20 pm 31.8 12.5 31 29.1 WSW 5 14 3 8 1011.4 0.0
24/10 4:50 pm 32.1 12.6 30 29.3 SW 5 12 3 6 1011.2 0.0
24/10 4:20 pm 33.5 12.4 28 27.3 WSW 10 19 5 10 1011.0 0.0
24/10 3:50 pm 32.4 12.5 30 26.9 W 9 19 5 10 1010.9 0.0
24/10 3:20 pm 33.1 12.8 29 25.5 WSW 12 23 6 12 1011.0 0.0
24/10 2:50 pm 33.1 12.4 28 24.7 WSW 13 23 7 12 1011.2 0.0
24/10 2:20 pm 33.8 12.8 28 29 SW 8 19 4 10 1011.4 0.0
24/10 1:50 pm 32.2 13.4 32 24.9 WSW 12 17 6 9 1011.5 0.0
24/10 1:20 pm 32.8 13.0 30 21.8 WSW 17 35 9 19 1011.7 0.0
24/10 12:50 pm 34.1 12.5 27 22.9 W 17 29 9 16 1011.7 0.0
24/10 12:20 pm 33.2 12.3 28 22 W 17 37 9 20 1012.0 0.0
24/10 11:50 am 33.4 11.5 26 20.5 W 19 42 10 23 1012.2 0.0
24/10 11:20 am 33.2 10.6 26 18.1 WSW 22 31 12 17 1012.5 0.0
24/10 10:50 am 32.9 14.3 33 23.8 W 15 27 8 15 1012.8 0.0
24/10 10:20 am 32.1 13.8 34 22.2 W 16 37 9 20 1012.9 0.0
24/10 9:50 am 31.5 15.3 38 24.2 W 13 31 7 17 1013.1 0.0
24/10 9:20 am 31.3 15.8 39 21.3 WNW 17 25 9 13 1013.2 0.0
24/10 8:50 am 30.6 16.8 44 27.4 W 8 15 4 8 1013.3 0.0
24/10 8:20 am 28.7 16.9 49 28.9 NW 3 12 2 6 1013.4 0.0
24/10 7:50 am 27.8 17.9 55 26.4 WNW 6 14 3 8 1013.4 0.0
24/10 7:20 am 26.5 18.1 60 23.7 NW 8 17 4 9 1013.2 0.0
24/10 6:50 am 25.4 18.3 65 22.7 NW 8 17 4 9 1012.9 0.0
24/10 6:20 am 22.8 17.6 72 21.9 W 5 15 3 8 1012.8 0.0
24/10 5:50 am 20.0 19.4 97 23.5 CALM 0 0 0 0 1012.6 0.0
24/10 5:20 am 19.7 19.2 96 23 CALM 0 6 0 3 1012.4 0.0
24/10 4:50 am 19.6 19.1 97 22.9 CALM 0 4 0 2 1012.1 0.0
24/10 4:20 am 19.6 18.9 96 22.8 CALM 0 0 0 0 1011.9 0.0
24/10 3:50 am 19.7 19.0 96 23 CALM 0 0 0 0 1011.6 0.0
24/10 3:20 am 20.0 19.3 96 23.4 CALM 0 0 0 0 1011.6 0.0
24/10 2:50 am 20.3 19.6 95 23.7 CALM 0 0 0 0 1011.6 0.0
24/10 2:20 am 20.6 19.7 95 24.2 CALM 0 0 0 0 1011.5 0.0
24/10 1:50 am 20.8 19.9 94 24.4 CALM 0 0 0 0 1011.5 0.0
24/10 1:20 am 21.3 20.3 94 25.1 CALM 0 0 0 0 1011.5 0.0
24/10 12:50 am 21.8 20.7 93 24.4 SW 2 6 1 3 1011.6 0.0
24/10 12:20 am 22.3 21.1 93 26.5 CALM 0 2 0 1 1012.3 0.0
23/10 11:50 pm 22.6 21.3 92 26.2 W 1 4 1 2 1012.4 0.0
23/10 11:20 pm 22.7 21.3 92 26.4 NNW 1 10 1 5 1012.9 0.0
23/10 10:50 pm 22.7 21.3 92 26.4 W 1 6 1 3 1012.9 0.0
23/10 10:20 pm 22.9 21.4 91 26.6 NNW 1 6 1 3 1012.8 0.0
23/10 9:50 pm 23.2 21.5 90 26.2 NW 2 6 1 3 1012.8 0.0
23/10 9:20 pm 23.6 21.8 90 24.7 NW 5 8 3 4 1013.1 0.0
23/10 8:50 pm 23.8 21.8 89 25.6 N 4 10 2 5 1013.4 0.0
23/10 8:20 pm 24.2 21.8 87 26 NNE 4 8 2 4 1013.4 0.0
23/10 7:50 pm 24.6 21.9 85 28.6 E 1 4 1 2 1013.9 0.0
23/10 7:20 pm 24.5 21.8 85 28.4 S 1 10 1 5 1014.0 0.0